sensor_id;sensor_type;location;lat;lon;timestamp;P1;durP1;ratioP1;P2;durP2;ratioP2
15022;SDS011;19850;49.576;10.880;2023-05-10T00:00:13;7.47;;;6.80;;
15022;SDS011;19850;49.576;10.880;2023-05-10T00:04:23;6.90;;;6.40;;
15022;SDS011;19850;49.576;10.880;2023-05-10T00:08:28;7.30;;;6.70;;
15022;SDS011;19850;49.576;10.880;2023-05-10T00:12:31;7.60;;;6.87;;
15022;SDS011;19850;49.576;10.880;2023-05-10T00:16:33;7.40;;;6.80;;
15022;SDS011;19850;49.576;10.880;2023-05-10T00:20:38;7.37;;;6.73;;
15022;SDS011;19850;49.576;10.880;2023-05-10T00:24:40;7.13;;;6.63;;
15022;SDS011;19850;49.576;10.880;2023-05-10T00:28:43;6.70;;;6.27;;
15022;SDS011;19850;49.576;10.880;2023-05-10T00:32:46;7.23;;;6.63;;
15022;SDS011;19850;49.576;10.880;2023-05-10T00:36:50;7.03;;;6.33;;
15022;SDS011;19850;49.576;10.880;2023-05-10T00:40:53;6.27;;;5.80;;
15022;SDS011;19850;49.576;10.880;2023-05-10T00:44:56;6.37;;;5.87;;
15022;SDS011;19850;49.576;10.880;2023-05-10T00:48:59;5.80;;;5.40;;
15022;SDS011;19850;49.576;10.880;2023-05-10T00:53:03;5.97;;;5.47;;
15022;SDS011;19850;49.576;10.880;2023-05-10T00:57:06;5.93;;;5.43;;
15022;SDS011;19850;49.576;10.880;2023-05-10T01:01:09;6.10;;;5.50;;
15022;SDS011;19850;49.576;10.880;2023-05-10T01:05:13;6.73;;;6.13;;
15022;SDS011;19850;49.576;10.880;2023-05-10T01:09:17;5.73;;;5.33;;
15022;SDS011;19850;49.576;10.880;2023-05-10T01:13:23;6.30;;;5.70;;
15022;SDS011;19850;49.576;10.880;2023-05-10T01:17:35;5.77;;;5.27;;
15022;SDS011;19850;49.576;10.880;2023-05-10T01:21:41;5.80;;;5.30;;
15022;SDS011;19850;49.576;10.880;2023-05-10T01:34:54;5.80;;;5.30;;
15022;SDS011;19850;49.576;10.880;2023-05-10T01:39:01;5.00;;;4.43;;
15022;SDS011;19850;49.576;10.880;2023-05-10T01:43:07;5.30;;;4.80;;
15022;SDS011;19850;49.576;10.880;2023-05-10T01:47:14;5.40;;;5.00;;
15022;SDS011;19850;49.576;10.880;2023-05-10T01:51:21;5.23;;;4.80;;
15022;SDS011;19850;49.576;10.880;2023-05-10T01:55:27;5.03;;;4.63;;
15022;SDS011;19850;49.576;10.880;2023-05-10T01:59:33;5.67;;;5.27;;
15022;SDS011;19850;49.576;10.880;2023-05-10T02:03:40;6.10;;;5.70;;
15022;SDS011;19850;49.576;10.880;2023-05-10T02:07:45;5.37;;;5.07;;
15022;SDS011;19850;49.576;10.880;2023-05-10T02:11:48;4.90;;;4.50;;
15022;SDS011;19850;49.576;10.880;2023-05-10T02:15:51;3.90;;;3.60;;
15022;SDS011;19850;49.576;10.880;2023-05-10T02:19:55;3.83;;;3.53;;
15022;SDS011;19850;49.576;10.880;2023-05-10T02:24:00;2.70;;;2.60;;
15022;SDS011;19850;49.576;10.880;2023-05-10T02:28:05;2.57;;;2.37;;
15022;SDS011;19850;49.576;10.880;2023-05-10T02:32:09;4.13;;;2.40;;
15022;SDS011;19850;49.576;10.880;2023-05-10T02:36:12;1.70;;;1.60;;
15022;SDS011;19850;49.576;10.880;2023-05-10T02:40:17;1.73;;;1.63;;
15022;SDS011;19850;49.576;10.880;2023-05-10T02:44:22;1.73;;;1.63;;
15022;SDS011;19850;49.576;10.880;2023-05-10T02:48:26;1.23;;;1.13;;
15022;SDS011;19850;49.576;10.880;2023-05-10T02:52:29;0.90;;;0.90;;
15022;SDS011;19850;49.576;10.880;2023-05-10T02:56:35;0.90;;;0.57;;
15022;SDS011;19850;49.576;10.880;2023-05-10T03:00:40;0.60;;;0.60;;
15022;SDS011;19850;49.576;10.880;2023-05-10T03:04:43;0.60;;;0.60;;
15022;SDS011;19850;49.576;10.880;2023-05-10T03:08:46;0.57;;;0.47;;
15022;SDS011;19850;49.576;10.880;2023-05-10T03:12:57;0.70;;;0.40;;
15022;SDS011;19850;49.576;10.880;2023-05-10T03:17:06;0.50;;;0.50;;
15022;SDS011;19850;49.576;10.880;2023-05-10T03:21:13;0.87;;;0.50;;
15022;SDS011;19850;49.576;10.880;2023-05-10T03:25:16;1.90;;;0.63;;
15022;SDS011;19850;49.576;10.880;2023-05-10T03:29:22;0.77;;;0.50;;
15022;SDS011;19850;49.576;10.880;2023-05-10T03:33:25;0.60;;;0.57;;
15022;SDS011;19850;49.576;10.880;2023-05-10T03:37:27;0.70;;;0.70;;
15022;SDS011;19850;49.576;10.880;2023-05-10T03:41:33;0.50;;;0.50;;
15022;SDS011;19850;49.576;10.880;2023-05-10T03:45:37;1.17;;;0.50;;
15022;SDS011;19850;49.576;10.880;2023-05-10T03:49:40;0.67;;;0.57;;
15022;SDS011;19850;49.576;10.880;2023-05-10T03:53:44;0.50;;;0.50;;
15022;SDS011;19850;49.576;10.880;2023-05-10T03:57:47;0.60;;;0.60;;
15022;SDS011;19850;49.576;10.880;2023-05-10T04:01:52;0.50;;;0.50;;
15022;SDS011;19850;49.576;10.880;2023-05-10T04:05:58;0.43;;;0.43;;
15022;SDS011;19850;49.576;10.880;2023-05-10T04:10:01;0.50;;;0.50;;
15022;SDS011;19850;49.576;10.880;2023-05-10T04:14:07;0.50;;;0.50;;
15022;SDS011;19850;49.576;10.880;2023-05-10T04:18:11;2.33;;;0.50;;
15022;SDS011;19850;49.576;10.880;2023-05-10T04:22:14;0.53;;;0.53;;
15022;SDS011;19850;49.576;10.880;2023-05-10T04:26:17;0.50;;;0.50;;
15022;SDS011;19850;49.576;10.880;2023-05-10T04:30:20;1.03;;;0.50;;
15022;SDS011;19850;49.576;10.880;2023-05-10T04:34:24;2.10;;;0.70;;
15022;SDS011;19850;49.576;10.880;2023-05-10T04:38:28;0.70;;;0.70;;
15022;SDS011;19850;49.576;10.880;2023-05-10T04:42:31;0.77;;;0.70;;
15022;SDS011;19850;49.576;10.880;2023-05-10T04:46:34;0.50;;;0.50;;
15022;SDS011;19850;49.576;10.880;2023-05-10T04:50:38;0.80;;;0.80;;
15022;SDS011;19850;49.576;10.880;2023-05-10T04:54:41;0.70;;;0.70;;
15022;SDS011;19850;49.576;10.880;2023-05-10T04:58:44;0.80;;;0.60;;
15022;SDS011;19850;49.576;10.880;2023-05-10T05:02:47;0.70;;;0.70;;
15022;SDS011;19850;49.576;10.880;2023-05-10T05:06:51;1.53;;;0.60;;
15022;SDS011;19850;49.576;10.880;2023-05-10T05:10:54;1.70;;;0.80;;
15022;SDS011;19850;49.576;10.880;2023-05-10T05:14:57;0.80;;;0.80;;
15022;SDS011;19850;49.576;10.880;2023-05-10T05:19:00;1.23;;;0.77;;
15022;SDS011;19850;49.576;10.880;2023-05-10T05:23:04;1.60;;;0.70;;
15022;SDS011;19850;49.576;10.880;2023-05-10T05:27:07;0.63;;;0.63;;
15022;SDS011;19850;49.576;10.880;2023-05-10T05:31:10;0.60;;;0.60;;
15022;SDS011;19850;49.576;10.880;2023-05-10T05:35:13;0.70;;;0.70;;
15022;SDS011;19850;49.576;10.880;2023-05-10T05:39:18;1.03;;;0.90;;
15022;SDS011;19850;49.576;10.880;2023-05-10T05:43:21;1.13;;;0.80;;
15022;SDS011;19850;49.576;10.880;2023-05-10T05:47:24;1.67;;;1.00;;
15022;SDS011;19850;49.576;10.880;2023-05-10T05:51:30;0.83;;;0.83;;
15022;SDS011;19850;49.576;10.880;2023-05-10T05:55:34;1.00;;;0.90;;
15022;SDS011;19850;49.576;10.880;2023-05-10T05:59:37;2.10;;;1.00;;
15022;SDS011;19850;49.576;10.880;2023-05-10T06:03:43;1.27;;;0.90;;
15022;SDS011;19850;49.576;10.880;2023-05-10T06:07:46;1.33;;;0.87;;
15022;SDS011;19850;49.576;10.880;2023-05-10T06:11:50;1.20;;;1.10;;
15022;SDS011;19850;49.576;10.880;2023-05-10T06:15:52;0.90;;;0.90;;
15022;SDS011;19850;49.576;10.880;2023-05-10T06:19:55;0.73;;;0.73;;
15022;SDS011;19850;49.576;10.880;2023-05-10T06:24:00;1.20;;;0.83;;
15022;SDS011;19850;49.576;10.880;2023-05-10T06:28:05;2.47;;;1.00;;
15022;SDS011;19850;49.576;10.880;2023-05-10T06:32:08;1.20;;;0.90;;
15022;SDS011;19850;49.576;10.880;2023-05-10T06:36:10;1.10;;;1.00;;
15022;SDS011;19850;49.576;10.880;2023-05-10T06:40:14;1.03;;;0.70;;
15022;SDS011;19850;49.576;10.880;2023-05-10T06:44:18;0.90;;;0.90;;
15022;SDS011;19850;49.576;10.880;2023-05-10T06:48:21;1.13;;;0.90;;
15022;SDS011;19850;49.576;10.880;2023-05-10T06:52:24;0.80;;;0.80;;
15022;SDS011;19850;49.576;10.880;2023-05-10T06:56:27;1.17;;;1.00;;
15022;SDS011;19850;49.576;10.880;2023-05-10T07:00:31;1.10;;;0.80;;
15022;SDS011;19850;49.576;10.880;2023-05-10T07:04:34;1.73;;;0.80;;
15022;SDS011;19850;49.576;10.880;2023-05-10T07:08:37;1.57;;;0.80;;
15022;SDS011;19850;49.576;10.880;2023-05-10T07:12:40;1.67;;;0.90;;
15022;SDS011;19850;49.576;10.880;2023-05-10T07:16:44;1.13;;;1.00;;
15022;SDS011;19850;49.576;10.880;2023-05-10T07:20:47;1.20;;;0.90;;
15022;SDS011;19850;49.576;10.880;2023-05-10T07:24:50;1.80;;;0.90;;
15022;SDS011;19850;49.576;10.880;2023-05-10T07:28:53;0.97;;;0.80;;
15022;SDS011;19850;49.576;10.880;2023-05-10T07:32:57;0.90;;;0.80;;
15022;SDS011;19850;49.576;10.880;2023-05-10T07:37:00;2.20;;;0.83;;
15022;SDS011;19850;49.576;10.880;2023-05-10T07:41:03;1.87;;;1.07;;
15022;SDS011;19850;49.576;10.880;2023-05-10T07:45:09;2.00;;;0.90;;
15022;SDS011;19850;49.576;10.880;2023-05-10T07:49:13;1.37;;;1.10;;
15022;SDS011;19850;49.576;10.880;2023-05-10T07:53:16;2.30;;;1.33;;
15022;SDS011;19850;49.576;10.880;2023-05-10T07:57:20;1.17;;;1.17;;
15022;SDS011;19850;49.576;10.880;2023-05-10T08:01:23;1.17;;;1.10;;
15022;SDS011;19850;49.576;10.880;2023-05-10T08:05:27;1.80;;;1.20;;
15022;SDS011;19850;49.576;10.880;2023-05-10T08:09:30;1.10;;;1.10;;
15022;SDS011;19850;49.576;10.880;2023-05-10T08:13:33;2.00;;;1.00;;
15022;SDS011;19850;49.576;10.880;2023-05-10T08:17:36;1.10;;;1.10;;
15022;SDS011;19850;49.576;10.880;2023-05-10T08:21:40;1.23;;;0.93;;
15022;SDS011;19850;49.576;10.880;2023-05-10T08:25:43;2.03;;;1.30;;
15022;SDS011;19850;49.576;10.880;2023-05-10T08:29:46;1.17;;;1.07;;
15022;SDS011;19850;49.576;10.880;2023-05-10T08:33:51;1.73;;;1.10;;
15022;SDS011;19850;49.576;10.880;2023-05-10T08:37:55;1.60;;;1.40;;
15022;SDS011;19850;49.576;10.880;2023-05-10T08:41:58;1.47;;;1.33;;
15022;SDS011;19850;49.576;10.880;2023-05-10T08:46:05;2.07;;;1.40;;
15022;SDS011;19850;49.576;10.880;2023-05-10T08:50:09;1.53;;;1.30;;
15022;SDS011;19850;49.576;10.880;2023-05-10T08:54:14;2.70;;;1.40;;
15022;SDS011;19850;49.576;10.880;2023-05-10T08:58:17;1.60;;;1.50;;
15022;SDS011;19850;49.576;10.880;2023-05-10T09:02:20;8.83;;;2.10;;
15022;SDS011;19850;49.576;10.880;2023-05-10T09:06:23;2.73;;;1.30;;
15022;SDS011;19850;49.576;10.880;2023-05-10T09:10:28;1.40;;;1.30;;
15022;SDS011;19850;49.576;10.880;2023-05-10T09:14:32;2.10;;;1.10;;
15022;SDS011;19850;49.576;10.880;2023-05-10T09:18:37;1.90;;;1.17;;
15022;SDS011;19850;49.576;10.880;2023-05-10T09:22:40;1.90;;;1.00;;
15022;SDS011;19850;49.576;10.880;2023-05-10T09:26:47;1.30;;;0.97;;
15022;SDS011;19850;49.576;10.880;2023-05-10T09:30:52;3.80;;;1.47;;
15022;SDS011;19850;49.576;10.880;2023-05-10T09:34:56;1.43;;;1.33;;
15022;SDS011;19850;49.576;10.880;2023-05-10T09:38:59;2.17;;;1.17;;
15022;SDS011;19850;49.576;10.880;2023-05-10T09:43:04;1.17;;;1.00;;
15022;SDS011;19850;49.576;10.880;2023-05-10T09:47:09;1.13;;;0.90;;
15022;SDS011;19850;49.576;10.880;2023-05-10T09:51:18;3.13;;;0.97;;
15022;SDS011;19850;49.576;10.880;2023-05-10T09:55:22;0.97;;;0.90;;
15022;SDS011;19850;49.576;10.880;2023-05-10T09:59:27;1.20;;;1.10;;
15022;SDS011;19850;49.576;10.880;2023-05-10T10:03:31;2.30;;;0.95;;
15022;SDS011;19850;49.576;10.880;2023-05-10T10:07:34;3.07;;;1.10;;
15022;SDS011;19850;49.576;10.880;2023-05-10T10:11:38;1.60;;;1.00;;
15022;SDS011;19850;49.576;10.880;2023-05-10T10:15:43;1.30;;;1.10;;
15022;SDS011;19850;49.576;10.880;2023-05-10T10:19:48;1.90;;;1.20;;
15022;SDS011;19850;49.576;10.880;2023-05-10T10:23:50;0.93;;;0.93;;
15022;SDS011;19850;49.576;10.880;2023-05-10T10:27:57;13.00;;;1.50;;
15022;SDS011;19850;49.576;10.880;2023-05-10T10:32:09;1.27;;;1.10;;
15022;SDS011;19850;49.576;10.880;2023-05-10T10:36:15;3.93;;;1.90;;
15022;SDS011;19850;49.576;10.880;2023-05-10T10:40:24;2.20;;;2.00;;
15022;SDS011;19850;49.576;10.880;2023-05-10T10:44:37;2.20;;;2.00;;
15022;SDS011;19850;49.576;10.880;2023-05-10T10:48:43;1.90;;;1.80;;
15022;SDS011;19850;49.576;10.880;2023-05-10T10:52:50;1.73;;;1.50;;
15022;SDS011;19850;49.576;10.880;2023-05-10T11:01:14;1.33;;;1.27;;
15022;SDS011;19850;49.576;10.880;2023-05-10T11:09:49;1.73;;;1.30;;
15022;SDS011;19850;49.576;10.880;2023-05-10T11:13:51;1.70;;;1.60;;
15022;SDS011;19850;49.576;10.880;2023-05-10T11:17:54;2.50;;;1.30;;
15022;SDS011;19850;49.576;10.880;2023-05-10T11:26:16;1.30;;;1.20;;
15022;SDS011;19850;49.576;10.880;2023-05-10T11:30:20;1.00;;;0.90;;
15022;SDS011;19850;49.576;10.880;2023-05-10T11:34:23;1.13;;;1.03;;
15022;SDS011;19850;49.576;10.880;2023-05-10T11:38:28;3.40;;;1.00;;
15022;SDS011;19850;49.576;10.880;2023-05-10T11:42:31;3.33;;;1.10;;
15022;SDS011;19850;49.576;10.880;2023-05-10T11:46:34;1.20;;;0.80;;
15022;SDS011;19850;49.576;10.880;2023-05-10T11:50:38;1.30;;;1.20;;
15022;SDS011;19850;49.576;10.880;2023-05-10T11:54:46;1.80;;;1.13;;
15022;SDS011;19850;49.576;10.880;2023-05-10T11:58:53;1.20;;;1.10;;
15022;SDS011;19850;49.576;10.880;2023-05-10T12:02:57;1.77;;;1.10;;
15022;SDS011;19850;49.576;10.880;2023-05-10T12:07:01;1.53;;;0.90;;
15022;SDS011;19850;49.576;10.880;2023-05-10T12:11:05;1.73;;;1.00;;
15022;SDS011;19850;49.576;10.880;2023-05-10T12:15:12;1.13;;;1.00;;
15022;SDS011;19850;49.576;10.880;2023-05-10T12:19:20;0.90;;;0.90;;
15022;SDS011;19850;49.576;10.880;2023-05-10T12:23:23;1.13;;;0.90;;
15022;SDS011;19850;49.576;10.880;2023-05-10T12:27:27;1.43;;;0.80;;
15022;SDS011;19850;49.576;10.880;2023-05-10T12:31:48;1.20;;;1.10;;
15022;SDS011;19850;49.576;10.880;2023-05-10T12:35:52;3.90;;;1.03;;
15022;SDS011;19850;49.576;10.880;2023-05-10T12:39:56;2.13;;;1.10;;
15022;SDS011;19850;49.576;10.880;2023-05-10T12:44:01;2.00;;;1.10;;
15022;SDS011;19850;49.576;10.880;2023-05-10T12:48:04;3.23;;;1.10;;
15022;SDS011;19850;49.576;10.880;2023-05-10T12:52:07;1.33;;;0.90;;
15022;SDS011;19850;49.576;10.880;2023-05-10T12:56:10;0.80;;;0.70;;
15022;SDS011;19850;49.576;10.880;2023-05-10T13:00:14;1.47;;;1.00;;
15022;SDS011;19850;49.576;10.880;2023-05-10T13:04:18;0.90;;;0.90;;
15022;SDS011;19850;49.576;10.880;2023-05-10T13:08:21;1.20;;;0.70;;
15022;SDS011;19850;49.576;10.880;2023-05-10T13:12:24;2.73;;;1.20;;
15022;SDS011;19850;49.576;10.880;2023-05-10T13:16:29;1.70;;;0.93;;
15022;SDS011;19850;49.576;10.880;2023-05-10T13:20:32;0.80;;;0.80;;
15022;SDS011;19850;49.576;10.880;2023-05-10T13:24:34;0.90;;;0.90;;
15022;SDS011;19850;49.576;10.880;2023-05-10T13:28:37;1.23;;;1.13;;
15022;SDS011;19850;49.576;10.880;2023-05-10T13:32:42;1.53;;;1.00;;
15022;SDS011;19850;49.576;10.880;2023-05-10T13:36:45;1.20;;;1.10;;
15022;SDS011;19850;49.576;10.880;2023-05-10T13:40:48;2.23;;;1.20;;
15022;SDS011;19850;49.576;10.880;2023-05-10T13:44:54;0.90;;;0.90;;
15022;SDS011;19850;49.576;10.880;2023-05-10T13:48:58;1.27;;;1.17;;
15022;SDS011;19850;49.576;10.880;2023-05-10T13:53:01;1.37;;;1.10;;
15022;SDS011;19850;49.576;10.880;2023-05-10T13:57:03;1.00;;;0.93;;
15022;SDS011;19850;49.576;10.880;2023-05-10T14:01:06;0.93;;;0.70;;
15022;SDS011;19850;49.576;10.880;2023-05-10T14:05:11;0.70;;;0.70;;
15022;SDS011;19850;49.576;10.880;2023-05-10T14:09:14;1.40;;;0.83;;
15022;SDS011;19850;49.576;10.880;2023-05-10T14:13:17;0.97;;;0.60;;
15022;SDS011;19850;49.576;10.880;2023-05-10T14:17:20;0.50;;;0.50;;
15022;SDS011;19850;49.576;10.880;2023-05-10T14:21:25;1.40;;;0.70;;
15022;SDS011;19850;49.576;10.880;2023-05-10T14:25:30;1.37;;;0.67;;
15022;SDS011;19850;49.576;10.880;2023-05-10T14:29:32;0.80;;;0.80;;
15022;SDS011;19850;49.576;10.880;2023-05-10T14:33:36;2.17;;;1.10;;
15022;SDS011;19850;49.576;10.880;2023-05-10T14:37:40;1.50;;;0.97;;
15022;SDS011;19850;49.576;10.880;2023-05-10T14:41:44;0.87;;;0.87;;
15022;SDS011;19850;49.576;10.880;2023-05-10T14:45:48;2.70;;;0.60;;
15022;SDS011;19850;49.576;10.880;2023-05-10T14:49:51;0.60;;;0.60;;
15022;SDS011;19850;49.576;10.880;2023-05-10T14:53:55;1.40;;;0.60;;
15022;SDS011;19850;49.576;10.880;2023-05-10T14:57:58;0.50;;;0.50;;
15022;SDS011;19850;49.576;10.880;2023-05-10T15:02:01;6.53;;;1.13;;
15022;SDS011;19850;49.576;10.880;2023-05-10T15:06:05;0.60;;;0.60;;
15022;SDS011;19850;49.576;10.880;2023-05-10T15:10:10;1.80;;;0.80;;
15022;SDS011;19850;49.576;10.880;2023-05-10T15:14:13;0.80;;;0.80;;
15022;SDS011;19850;49.576;10.880;2023-05-10T15:18:16;12.60;;;2.00;;
15022;SDS011;19850;49.576;10.880;2023-05-10T15:22:19;2.03;;;1.33;;
15022;SDS011;19850;49.576;10.880;2023-05-10T15:26:24;1.37;;;1.20;;
15022;SDS011;19850;49.576;10.880;2023-05-10T15:30:27;1.57;;;1.10;;
15022;SDS011;19850;49.576;10.880;2023-05-10T15:34:30;1.10;;;1.00;;
15022;SDS011;19850;49.576;10.880;2023-05-10T15:38:36;1.10;;;1.00;;
15022;SDS011;19850;49.576;10.880;2023-05-10T15:42:41;1.53;;;1.33;;
15022;SDS011;19850;49.576;10.880;2023-05-10T15:46:44;1.30;;;1.00;;
15022;SDS011;19850;49.576;10.880;2023-05-10T15:50:48;1.10;;;1.10;;
15022;SDS011;19850;49.576;10.880;2023-05-10T15:54:51;4.53;;;1.27;;
15022;SDS011;19850;49.576;10.880;2023-05-10T15:58:57;1.93;;;1.20;;
15022;SDS011;19850;49.576;10.880;2023-05-10T16:03:00;4.70;;;1.20;;
15022;SDS011;19850;49.576;10.880;2023-05-10T16:07:04;1.70;;;1.20;;
15022;SDS011;19850;49.576;10.880;2023-05-10T16:11:07;1.50;;;1.20;;
15022;SDS011;19850;49.576;10.880;2023-05-10T16:15:11;1.77;;;1.13;;
15022;SDS011;19850;49.576;10.880;2023-05-10T16:19:14;2.27;;;1.40;;
15022;SDS011;19850;49.576;10.880;2023-05-10T16:23:17;2.67;;;1.40;;
15022;SDS011;19850;49.576;10.880;2023-05-10T16:27:19;3.30;;;1.60;;
15022;SDS011;19850;49.576;10.880;2023-05-10T16:31:24;1.50;;;1.40;;
15022;SDS011;19850;49.576;10.880;2023-05-10T16:35:27;1.53;;;1.43;;
15022;SDS011;19850;49.576;10.880;2023-05-10T16:39:31;2.13;;;1.60;;
15022;SDS011;19850;49.576;10.880;2023-05-10T16:43:34;3.10;;;1.60;;
15022;SDS011;19850;49.576;10.880;2023-05-10T16:47:39;1.97;;;1.83;;
15022;SDS011;19850;49.576;10.880;2023-05-10T16:51:42;1.90;;;1.80;;
15022;SDS011;19850;49.576;10.880;2023-05-10T16:55:45;1.67;;;1.57;;
15022;SDS011;19850;49.576;10.880;2023-05-10T16:59:48;1.60;;;1.50;;
15022;SDS011;19850;49.576;10.880;2023-05-10T17:03:55;1.50;;;1.40;;
15022;SDS011;19850;49.576;10.880;2023-05-10T17:07:58;2.23;;;1.57;;
15022;SDS011;19850;49.576;10.880;2023-05-10T17:12:01;2.30;;;1.20;;
15022;SDS011;19850;49.576;10.880;2023-05-10T17:16:04;2.08;;;1.42;;
15022;SDS011;19850;49.576;10.880;2023-05-10T17:20:12;1.63;;;1.23;;
15022;SDS011;19850;49.576;10.880;2023-05-10T17:24:15;1.50;;;1.40;;
15022;SDS011;19850;49.576;10.880;2023-05-10T17:28:18;1.80;;;1.20;;
15022;SDS011;19850;49.576;10.880;2023-05-10T17:32:21;1.47;;;1.30;;
15022;SDS011;19850;49.576;10.880;2023-05-10T17:36:25;1.60;;;1.20;;
15022;SDS011;19850;49.576;10.880;2023-05-10T17:40:28;2.20;;;1.70;;
15022;SDS011;19850;49.576;10.880;2023-05-10T17:44:32;1.73;;;1.20;;
15022;SDS011;19850;49.576;10.880;2023-05-10T17:48:35;2.80;;;1.60;;
15022;SDS011;19850;49.576;10.880;2023-05-10T17:52:39;1.70;;;1.30;;
15022;SDS011;19850;49.576;10.880;2023-05-10T17:56:42;1.70;;;1.60;;
15022;SDS011;19850;49.576;10.880;2023-05-10T18:00:47;3.90;;;1.50;;
15022;SDS011;19850;49.576;10.880;2023-05-10T18:04:51;2.20;;;1.53;;
15022;SDS011;19850;49.576;10.880;2023-05-10T18:08:57;3.47;;;1.67;;
15022;SDS011;19850;49.576;10.880;2023-05-10T18:13:00;1.97;;;1.40;;
15022;SDS011;19850;49.576;10.880;2023-05-10T18:17:08;2.03;;;1.30;;
15022;SDS011;19850;49.576;10.880;2023-05-10T18:21:11;1.73;;;1.50;;
15022;SDS011;19850;49.576;10.880;2023-05-10T18:25:16;2.53;;;1.50;;
15022;SDS011;19850;49.576;10.880;2023-05-10T18:29:19;1.30;;;1.20;;
15022;SDS011;19850;49.576;10.880;2023-05-10T18:33:24;1.77;;;1.50;;
15022;SDS011;19850;49.576;10.880;2023-05-10T18:37:26;2.00;;;1.50;;
15022;SDS011;19850;49.576;10.880;2023-05-10T18:41:31;3.07;;;1.60;;
15022;SDS011;19850;49.576;10.880;2023-05-10T18:45:34;1.80;;;1.70;;
15022;SDS011;19850;49.576;10.880;2023-05-10T18:49:37;1.83;;;1.60;;
15022;SDS011;19850;49.576;10.880;2023-05-10T18:53:40;1.87;;;1.70;;
15022;SDS011;19850;49.576;10.880;2023-05-10T18:57:44;2.57;;;1.50;;
15022;SDS011;19850;49.576;10.880;2023-05-10T19:01:47;2.70;;;1.60;;
15022;SDS011;19850;49.576;10.880;2023-05-10T19:05:51;2.33;;;1.43;;
15022;SDS011;19850;49.576;10.880;2023-05-10T19:09:54;1.80;;;1.70;;
15022;SDS011;19850;49.576;10.880;2023-05-10T19:13:58;5.70;;;1.57;;
15022;SDS011;19850;49.576;10.880;2023-05-10T19:18:01;1.93;;;1.83;;
15022;SDS011;19850;49.576;10.880;2023-05-10T19:22:05;1.77;;;1.67;;
15022;SDS011;19850;49.576;10.880;2023-05-10T19:26:09;2.83;;;2.00;;
15022;SDS011;19850;49.576;10.880;2023-05-10T19:30:14;2.50;;;2.27;;
15022;SDS011;19850;49.576;10.880;2023-05-10T19:34:17;2.17;;;1.90;;
15022;SDS011;19850;49.576;10.880;2023-05-10T19:38:20;2.03;;;1.73;;
15022;SDS011;19850;49.576;10.880;2023-05-10T19:42:23;1.93;;;1.83;;
15022;SDS011;19850;49.576;10.880;2023-05-10T19:46:27;3.03;;;1.60;;
15022;SDS011;19850;49.576;10.880;2023-05-10T19:50:30;4.23;;;2.40;;
15022;SDS011;19850;49.576;10.880;2023-05-10T19:54:33;2.43;;;2.23;;
15022;SDS011;19850;49.576;10.880;2023-05-10T19:58:36;2.57;;;2.37;;
15022;SDS011;19850;49.576;10.880;2023-05-10T20:02:40;6.73;;;3.47;;
15022;SDS011;19850;49.576;10.880;2023-05-10T20:06:43;3.67;;;3.37;;
15022;SDS011;19850;49.576;10.880;2023-05-10T20:10:46;3.80;;;3.50;;
15022;SDS011;19850;49.576;10.880;2023-05-10T20:14:48;4.00;;;3.70;;
15022;SDS011;19850;49.576;10.880;2023-05-10T20:18:52;3.10;;;2.90;;
15022;SDS011;19850;49.576;10.880;2023-05-10T20:22:55;2.83;;;2.63;;
15022;SDS011;19850;49.576;10.880;2023-05-10T20:26:58;2.60;;;2.40;;
15022;SDS011;19850;49.576;10.880;2023-05-10T20:31:01;2.87;;;2.50;;
15022;SDS011;19850;49.576;10.880;2023-05-10T20:35:05;3.17;;;2.27;;
15022;SDS011;19850;49.576;10.880;2023-05-10T20:39:09;3.07;;;2.30;;
15022;SDS011;19850;49.576;10.880;2023-05-10T20:43:11;2.87;;;2.67;;
15022;SDS011;19850;49.576;10.880;2023-05-10T20:47:14;3.13;;;2.30;;
15022;SDS011;19850;49.576;10.880;2023-05-10T20:51:19;3.67;;;2.40;;
15022;SDS011;19850;49.576;10.880;2023-05-10T20:55:25;2.53;;;2.33;;
15022;SDS011;19850;49.576;10.880;2023-05-10T20:59:29;3.20;;;2.40;;
15022;SDS011;19850;49.576;10.880;2023-05-10T21:03:31;3.10;;;2.40;;
15022;SDS011;19850;49.576;10.880;2023-05-10T21:07:35;2.07;;;1.70;;
15022;SDS011;19850;49.576;10.880;2023-05-10T21:11:39;2.90;;;2.40;;
15022;SDS011;19850;49.576;10.880;2023-05-10T21:15:42;2.40;;;1.80;;
15022;SDS011;19850;49.576;10.880;2023-05-10T21:19:49;1.93;;;1.73;;
15022;SDS011;19850;49.576;10.880;2023-05-10T21:23:54;2.03;;;1.67;;
15022;SDS011;19850;49.576;10.880;2023-05-10T21:27:57;1.93;;;1.73;;
15022;SDS011;19850;49.576;10.880;2023-05-10T21:31:59;1.70;;;1.60;;
15022;SDS011;19850;49.576;10.880;2023-05-10T21:36:03;1.87;;;1.37;;
15022;SDS011;19850;49.576;10.880;2023-05-10T21:40:08;2.40;;;1.60;;
15022;SDS011;19850;49.576;10.880;2023-05-10T21:44:11;5.70;;;2.07;;
15022;SDS011;19850;49.576;10.880;2023-05-10T21:48:14;2.57;;;1.70;;
15022;SDS011;19850;49.576;10.880;2023-05-10T21:52:17;4.03;;;1.90;;
15022;SDS011;19850;49.576;10.880;2023-05-10T21:56:23;2.33;;;1.60;;
15022;SDS011;19850;49.576;10.880;2023-05-10T22:00:26;1.77;;;1.67;;
15022;SDS011;19850;49.576;10.880;2023-05-10T22:04:29;1.80;;;1.70;;
15022;SDS011;19850;49.576;10.880;2023-05-10T22:08:33;6.03;;;2.10;;
15022;SDS011;19850;49.576;10.880;2023-05-10T22:12:37;5.47;;;2.10;;
15022;SDS011;19850;49.576;10.880;2023-05-10T22:16:40;2.07;;;1.70;;
15022;SDS011;19850;49.576;10.880;2023-05-10T22:20:43;3.53;;;1.83;;
15022;SDS011;19850;49.576;10.880;2023-05-10T22:24:46;1.63;;;1.53;;
15022;SDS011;19850;49.576;10.880;2023-05-10T22:28:50;2.88;;;1.85;;
15022;SDS011;19850;49.576;10.880;2023-05-10T22:32:53;2.53;;;2.00;;
15022;SDS011;19850;49.576;10.880;2023-05-10T22:36:56;2.63;;;2.07;;
15022;SDS011;19850;49.576;10.880;2023-05-10T22:40:59;3.77;;;1.77;;
15022;SDS011;19850;49.576;10.880;2023-05-10T22:45:08;2.73;;;1.83;;
15022;SDS011;19850;49.576;10.880;2023-05-10T22:49:12;2.07;;;1.70;;
15022;SDS011;19850;49.576;10.880;2023-05-10T22:53:17;3.03;;;1.80;;
15022;SDS011;19850;49.576;10.880;2023-05-10T22:57:19;3.33;;;1.93;;
15022;SDS011;19850;49.576;10.880;2023-05-10T23:01:23;2.30;;;2.10;;
15022;SDS011;19850;49.576;10.880;2023-05-10T23:05:26;2.97;;;1.90;;
15022;SDS011;19850;49.576;10.880;2023-05-10T23:09:29;2.70;;;1.87;;
15022;SDS011;19850;49.576;10.880;2023-05-10T23:13:32;3.97;;;2.17;;
15022;SDS011;19850;49.576;10.880;2023-05-10T23:17:36;3.50;;;1.70;;
15022;SDS011;19850;49.576;10.880;2023-05-10T23:21:39;4.13;;;2.00;;
15022;SDS011;19850;49.576;10.880;2023-05-10T23:25:41;3.10;;;1.73;;
15022;SDS011;19850;49.576;10.880;2023-05-10T23:29:44;3.20;;;1.67;;
15022;SDS011;19850;49.576;10.880;2023-05-10T23:33:48;2.77;;;1.90;;
15022;SDS011;19850;49.576;10.880;2023-05-10T23:37:51;3.23;;;2.00;;
15022;SDS011;19850;49.576;10.880;2023-05-10T23:41:54;1.73;;;1.63;;
15022;SDS011;19850;49.576;10.880;2023-05-10T23:45:57;2.00;;;1.80;;
15022;SDS011;19850;49.576;10.880;2023-05-10T23:50:01;3.43;;;2.33;;
15022;SDS011;19850;49.576;10.880;2023-05-10T23:54:05;2.30;;;2.17;;
15022;SDS011;19850;49.576;10.880;2023-05-10T23:58:09;4.00;;;1.97;;
